sensor_id;sensor_type;location;lat;lon;timestamp;temperature;humidity
4697;DHT22;2362;50.780;0.292;2022-12-18T00:02:19;2.00;99.90
4697;DHT22;2362;50.780;0.292;2022-12-18T00:04:45;2.20;99.90
4697;DHT22;2362;50.780;0.292;2022-12-18T00:07:10;2.10;99.90
4697;DHT22;2362;50.780;0.292;2022-12-18T00:09:36;2.10;99.90
4697;DHT22;2362;50.780;0.292;2022-12-18T00:12:02;2.00;99.90
4697;DHT22;2362;50.780;0.292;2022-12-18T00:14:27;2.00;99.90
4697;DHT22;2362;50.780;0.292;2022-12-18T00:16:53;2.00;99.90
4697;DHT22;2362;50.780;0.292;2022-12-18T00:19:19;2.00;99.90
4697;DHT22;2362;50.780;0.292;2022-12-18T00:21:44;2.00;99.90
4697;DHT22;2362;50.780;0.292;2022-12-18T00:24:11;2.10;99.90
4697;DHT22;2362;50.780;0.292;2022-12-18T00:26:38;2.10;99.90
4697;DHT22;2362;50.780;0.292;2022-12-18T00:29:11;2.10;99.90
4697;DHT22;2362;50.780;0.292;2022-12-18T00:31:37;2.10;99.90
4697;DHT22;2362;50.780;0.292;2022-12-18T00:34:03;2.30;99.90
4697;DHT22;2362;50.780;0.292;2022-12-18T00:36:32;2.30;99.90
4697;DHT22;2362;50.780;0.292;2022-12-18T00:39:00;2.30;99.90
4697;DHT22;2362;50.780;0.292;2022-12-18T00:41:27;2.30;99.90
4697;DHT22;2362;50.780;0.292;2022-12-18T00:44:13;2.20;99.90
4697;DHT22;2362;50.780;0.292;2022-12-18T00:46:40;2.20;99.90
4697;DHT22;2362;50.780;0.292;2022-12-18T00:49:06;2.20;99.90
4697;DHT22;2362;50.780;0.292;2022-12-18T00:51:32;2.20;99.90
4697;DHT22;2362;50.780;0.292;2022-12-18T00:53:57;2.20;99.90
4697;DHT22;2362;50.780;0.292;2022-12-18T00:56:23;2.30;99.90
4697;DHT22;2362;50.780;0.292;2022-12-18T00:58:50;2.20;99.90
4697;DHT22;2362;50.780;0.292;2022-12-18T01:01:15;2.30;99.90
4697;DHT22;2362;50.780;0.292;2022-12-18T01:03:41;2.30;99.90
4697;DHT22;2362;50.780;0.292;2022-12-18T01:06:09;2.30;99.90
4697;DHT22;2362;50.780;0.292;2022-12-18T01:08:35;2.50;99.90
4697;DHT22;2362;50.780;0.292;2022-12-18T01:11:06;2.50;99.90
4697;DHT22;2362;50.780;0.292;2022-12-18T01:13:32;2.40;99.90
4697;DHT22;2362;50.780;0.292;2022-12-18T01:15:58;2.40;99.90
4697;DHT22;2362;50.780;0.292;2022-12-18T01:18:24;2.50;99.90
4697;DHT22;2362;50.780;0.292;2022-12-18T01:20:50;2.50;99.90
4697;DHT22;2362;50.780;0.292;2022-12-18T01:23:15;2.70;99.90
4697;DHT22;2362;50.780;0.292;2022-12-18T01:25:41;2.70;99.90
4697;DHT22;2362;50.780;0.292;2022-12-18T01:28:06;2.70;99.90
4697;DHT22;2362;50.780;0.292;2022-12-18T01:30:32;2.70;99.90
4697;DHT22;2362;50.780;0.292;2022-12-18T01:32:58;2.80;99.90
4697;DHT22;2362;50.780;0.292;2022-12-18T01:35:24;2.70;99.90
4697;DHT22;2362;50.780;0.292;2022-12-18T01:37:53;2.80;99.90
4697;DHT22;2362;50.780;0.292;2022-12-18T01:40:19;2.80;99.90
4697;DHT22;2362;50.780;0.292;2022-12-18T01:42:44;2.70;99.90
4697;DHT22;2362;50.780;0.292;2022-12-18T01:50:44;2.70;99.90
4697;DHT22;2362;50.780;0.292;2022-12-18T01:53:14;2.80;99.90
4697;DHT22;2362;50.780;0.292;2022-12-18T01:55:49;2.80;99.90
4697;DHT22;2362;50.780;0.292;2022-12-18T01:58:17;2.70;99.90
4697;DHT22;2362;50.780;0.292;2022-12-18T02:00:43;2.80;99.90
4697;DHT22;2362;50.780;0.292;2022-12-18T02:03:34;2.90;99.90
4697;DHT22;2362;50.780;0.292;2022-12-18T02:09:01;2.80;99.90
4697;DHT22;2362;50.780;0.292;2022-12-18T02:11:42;2.80;99.90
4697;DHT22;2362;50.780;0.292;2022-12-18T02:17:15;2.60;99.90
4697;DHT22;2362;50.780;0.292;2022-12-18T02:20:13;2.50;99.90
4697;DHT22;2362;50.780;0.292;2022-12-18T02:25:58;2.60;99.90
4697;DHT22;2362;50.780;0.292;2022-12-18T02:28:31;2.60;99.90
4697;DHT22;2362;50.780;0.292;2022-12-18T02:31:02;2.60;99.90
4697;DHT22;2362;50.780;0.292;2022-12-18T02:33:30;2.60;99.90
4697;DHT22;2362;50.780;0.292;2022-12-18T02:35:59;2.60;99.90
4697;DHT22;2362;50.780;0.292;2022-12-18T02:38:25;2.60;99.90
4697;DHT22;2362;50.780;0.292;2022-12-18T02:40:53;2.60;99.90
4697;DHT22;2362;50.780;0.292;2022-12-18T02:43:19;2.60;99.90
4697;DHT22;2362;50.780;0.292;2022-12-18T02:45:55;2.60;99.90
4697;DHT22;2362;50.780;0.292;2022-12-18T02:48:28;2.70;99.90
4697;DHT22;2362;50.780;0.292;2022-12-18T02:51:08;2.70;99.90
4697;DHT22;2362;50.780;0.292;2022-12-18T02:53:45;2.70;99.90
4697;DHT22;2362;50.780;0.292;2022-12-18T02:56:28;2.70;99.90
4697;DHT22;2362;50.780;0.292;2022-12-18T02:59:06;2.70;99.90
4697;DHT22;2362;50.780;0.292;2022-12-18T03:04:38;2.80;99.90
4697;DHT22;2362;50.780;0.292;2022-12-18T03:07:10;2.80;99.90
4697;DHT22;2362;50.780;0.292;2022-12-18T03:09:42;2.80;99.90
4697;DHT22;2362;50.780;0.292;2022-12-18T03:15:13;2.70;99.90
4697;DHT22;2362;50.780;0.292;2022-12-18T03:17:42;2.70;99.90
4697;DHT22;2362;50.780;0.292;2022-12-18T03:20:16;2.70;99.90
4697;DHT22;2362;50.780;0.292;2022-12-18T03:22:46;2.70;99.90
4697;DHT22;2362;50.780;0.292;2022-12-18T03:25:14;2.80;99.90
4697;DHT22;2362;50.780;0.292;2022-12-18T03:27:44;2.80;99.90
4697;DHT22;2362;50.780;0.292;2022-12-18T03:30:14;2.70;99.90
4697;DHT22;2362;50.780;0.292;2022-12-18T03:32:44;2.80;99.90
4697;DHT22;2362;50.780;0.292;2022-12-18T03:35:15;2.90;99.90
4697;DHT22;2362;50.780;0.292;2022-12-18T03:38:09;2.90;99.90
4697;DHT22;2362;50.780;0.292;2022-12-18T03:43:46;2.90;99.90
4697;DHT22;2362;50.780;0.292;2022-12-18T03:47:13;2.80;99.90
4697;DHT22;2362;50.780;0.292;2022-12-18T03:49:57;2.90;99.90
4697;DHT22;2362;50.780;0.292;2022-12-18T03:52:33;2.90;99.90
4697;DHT22;2362;50.780;0.292;2022-12-18T03:55:01;2.90;99.90
4697;DHT22;2362;50.780;0.292;2022-12-18T03:57:30;3.00;99.90
4697;DHT22;2362;50.780;0.292;2022-12-18T04:00:09;2.90;99.90
4697;DHT22;2362;50.780;0.292;2022-12-18T04:02:37;3.00;99.90
4697;DHT22;2362;50.780;0.292;2022-12-18T04:05:05;3.00;99.90
4697;DHT22;2362;50.780;0.292;2022-12-18T04:07:33;3.10;99.90
4697;DHT22;2362;50.780;0.292;2022-12-18T04:10:00;3.00;99.90
4697;DHT22;2362;50.780;0.292;2022-12-18T04:12:29;3.00;99.90
4697;DHT22;2362;50.780;0.292;2022-12-18T04:14:55;3.00;99.90
4697;DHT22;2362;50.780;0.292;2022-12-18T04:17:22;2.90;99.90
4697;DHT22;2362;50.780;0.292;2022-12-18T04:19:48;3.10;99.90
4697;DHT22;2362;50.780;0.292;2022-12-18T04:22:13;3.10;99.90
4697;DHT22;2362;50.780;0.292;2022-12-18T04:24:39;3.00;99.90
4697;DHT22;2362;50.780;0.292;2022-12-18T04:27:06;3.00;99.90
4697;DHT22;2362;50.780;0.292;2022-12-18T04:29:32;3.10;99.90
4697;DHT22;2362;50.780;0.292;2022-12-18T04:31:58;3.10;99.90
4697;DHT22;2362;50.780;0.292;2022-12-18T04:34:23;3.10;99.90
4697;DHT22;2362;50.780;0.292;2022-12-18T04:36:49;3.10;99.90
4697;DHT22;2362;50.780;0.292;2022-12-18T04:39:15;3.00;99.90
4697;DHT22;2362;50.780;0.292;2022-12-18T04:41:41;3.10;99.90
4697;DHT22;2362;50.780;0.292;2022-12-18T04:44:06;3.20;99.90
4697;DHT22;2362;50.780;0.292;2022-12-18T04:49:24;3.20;99.90
4697;DHT22;2362;50.780;0.292;2022-12-18T04:51:50;3.30;99.90
4697;DHT22;2362;50.780;0.292;2022-12-18T04:54:15;3.40;99.90
4697;DHT22;2362;50.780;0.292;2022-12-18T04:56:41;3.40;99.90
4697;DHT22;2362;50.780;0.292;2022-12-18T04:59:07;3.30;99.90
4697;DHT22;2362;50.780;0.292;2022-12-18T05:01:33;3.20;99.90
4697;DHT22;2362;50.780;0.292;2022-12-18T05:03:59;3.20;99.90
4697;DHT22;2362;50.780;0.292;2022-12-18T05:06:25;3.10;99.90
4697;DHT22;2362;50.780;0.292;2022-12-18T05:08:51;3.10;99.90
4697;DHT22;2362;50.780;0.292;2022-12-18T05:11:16;3.30;99.90
4697;DHT22;2362;50.780;0.292;2022-12-18T05:13:45;3.30;99.90
4697;DHT22;2362;50.780;0.292;2022-12-18T05:16:12;3.30;99.90
4697;DHT22;2362;50.780;0.292;2022-12-18T05:18:38;3.30;99.90
4697;DHT22;2362;50.780;0.292;2022-12-18T05:21:04;3.30;99.90
4697;DHT22;2362;50.780;0.292;2022-12-18T05:23:30;3.30;99.90
4697;DHT22;2362;50.780;0.292;2022-12-18T05:26:00;3.40;99.90
4697;DHT22;2362;50.780;0.292;2022-12-18T05:28:28;3.40;99.90
4697;DHT22;2362;50.780;0.292;2022-12-18T05:30:59;3.40;99.90
4697;DHT22;2362;50.780;0.292;2022-12-18T05:33:28;3.40;99.90
4697;DHT22;2362;50.780;0.292;2022-12-18T05:35:56;3.40;99.90
4697;DHT22;2362;50.780;0.292;2022-12-18T05:38:23;3.40;99.90
4697;DHT22;2362;50.780;0.292;2022-12-18T05:40:50;3.50;99.90
4697;DHT22;2362;50.780;0.292;2022-12-18T05:43:17;3.60;99.90
4697;DHT22;2362;50.780;0.292;2022-12-18T05:45:43;3.50;99.90
4697;DHT22;2362;50.780;0.292;2022-12-18T05:48:09;3.60;99.90
4697;DHT22;2362;50.780;0.292;2022-12-18T05:50:36;3.60;99.90
4697;DHT22;2362;50.780;0.292;2022-12-18T05:53:03;3.50;99.90
4697;DHT22;2362;50.780;0.292;2022-12-18T05:55:29;3.50;99.90
4697;DHT22;2362;50.780;0.292;2022-12-18T05:57:55;3.60;99.90
4697;DHT22;2362;50.780;0.292;2022-12-18T06:00:20;3.70;99.90
4697;DHT22;2362;50.780;0.292;2022-12-18T06:02:47;3.60;99.90
4697;DHT22;2362;50.780;0.292;2022-12-18T06:05:12;3.60;99.90
4697;DHT22;2362;50.780;0.292;2022-12-18T06:07:38;3.60;99.90
4697;DHT22;2362;50.780;0.292;2022-12-18T06:10:04;3.60;99.90
4697;DHT22;2362;50.780;0.292;2022-12-18T06:12:30;3.60;99.90
4697;DHT22;2362;50.780;0.292;2022-12-18T06:15:21;3.60;99.90
4697;DHT22;2362;50.780;0.292;2022-12-18T06:17:47;3.60;99.90
4697;DHT22;2362;50.780;0.292;2022-12-18T06:20:13;3.70;99.90
4697;DHT22;2362;50.780;0.292;2022-12-18T06:22:38;3.70;99.90
4697;DHT22;2362;50.780;0.292;2022-12-18T06:25:04;3.60;99.90
4697;DHT22;2362;50.780;0.292;2022-12-18T06:27:31;3.70;99.90
4697;DHT22;2362;50.780;0.292;2022-12-18T06:29:59;3.70;99.90
4697;DHT22;2362;50.780;0.292;2022-12-18T06:32:25;3.70;99.90
4697;DHT22;2362;50.780;0.292;2022-12-18T06:34:50;3.70;99.90
4697;DHT22;2362;50.780;0.292;2022-12-18T06:37:16;3.80;99.90
4697;DHT22;2362;50.780;0.292;2022-12-18T06:39:42;3.80;99.90
4697;DHT22;2362;50.780;0.292;2022-12-18T06:42:07;3.70;99.90
4697;DHT22;2362;50.780;0.292;2022-12-18T06:44:33;3.80;99.90
4697;DHT22;2362;50.780;0.292;2022-12-18T06:46:59;3.90;99.90
4697;DHT22;2362;50.780;0.292;2022-12-18T06:49:24;3.90;99.90
4697;DHT22;2362;50.780;0.292;2022-12-18T06:51:50;3.90;99.90
4697;DHT22;2362;50.780;0.292;2022-12-18T06:54:16;3.90;99.90
4697;DHT22;2362;50.780;0.292;2022-12-18T06:56:42;3.90;99.90
4697;DHT22;2362;50.780;0.292;2022-12-18T06:59:07;3.90;99.90
4697;DHT22;2362;50.780;0.292;2022-12-18T07:01:33;3.90;99.90
4697;DHT22;2362;50.780;0.292;2022-12-18T07:03:59;3.80;99.90
4697;DHT22;2362;50.780;0.292;2022-12-18T07:06:25;3.80;99.90
4697;DHT22;2362;50.780;0.292;2022-12-18T07:08:53;3.80;99.90
4697;DHT22;2362;50.780;0.292;2022-12-18T07:11:19;3.80;99.90
4697;DHT22;2362;50.780;0.292;2022-12-18T07:13:45;3.80;99.90
4697;DHT22;2362;50.780;0.292;2022-12-18T07:16:15;3.80;99.90
4697;DHT22;2362;50.780;0.292;2022-12-18T07:18:41;3.80;99.90
4697;DHT22;2362;50.780;0.292;2022-12-18T07:21:12;3.80;99.90
4697;DHT22;2362;50.780;0.292;2022-12-18T07:23:39;3.70;99.90
4697;DHT22;2362;50.780;0.292;2022-12-18T07:26:06;3.80;99.90
4697;DHT22;2362;50.780;0.292;2022-12-18T07:28:33;3.80;99.90
4697;DHT22;2362;50.780;0.292;2022-12-18T07:31:06;3.70;99.90
4697;DHT22;2362;50.780;0.292;2022-12-18T07:33:33;3.70;99.90
4697;DHT22;2362;50.780;0.292;2022-12-18T07:36:00;3.70;99.90
4697;DHT22;2362;50.780;0.292;2022-12-18T07:38:26;3.80;99.90
4697;DHT22;2362;50.780;0.292;2022-12-18T07:40:51;3.70;99.90
4697;DHT22;2362;50.780;0.292;2022-12-18T07:43:17;3.70;99.90
4697;DHT22;2362;50.780;0.292;2022-12-18T07:45:43;3.70;99.90
4697;DHT22;2362;50.780;0.292;2022-12-18T07:48:09;3.70;99.90
4697;DHT22;2362;50.780;0.292;2022-12-18T07:50:36;3.70;99.90
4697;DHT22;2362;50.780;0.292;2022-12-18T07:53:02;3.70;99.90
4697;DHT22;2362;50.780;0.292;2022-12-18T07:55:31;3.70;99.90
4697;DHT22;2362;50.780;0.292;2022-12-18T07:57:57;3.60;99.90
4697;DHT22;2362;50.780;0.292;2022-12-18T08:00:22;3.60;99.90
4697;DHT22;2362;50.780;0.292;2022-12-18T08:02:48;3.50;99.90
4697;DHT22;2362;50.780;0.292;2022-12-18T08:05:15;3.60;99.90
4697;DHT22;2362;50.780;0.292;2022-12-18T08:07:41;3.60;99.90
4697;DHT22;2362;50.780;0.292;2022-12-18T08:10:07;3.50;99.90
4697;DHT22;2362;50.780;0.292;2022-12-18T08:12:33;3.50;99.90
4697;DHT22;2362;50.780;0.292;2022-12-18T08:14:58;3.50;99.90
4697;DHT22;2362;50.780;0.292;2022-12-18T08:17:24;3.50;99.90
4697;DHT22;2362;50.780;0.292;2022-12-18T08:19:50;3.50;99.90
4697;DHT22;2362;50.780;0.292;2022-12-18T08:22:16;3.40;99.90
4697;DHT22;2362;50.780;0.292;2022-12-18T08:24:41;3.40;99.90
4697;DHT22;2362;50.780;0.292;2022-12-18T08:27:08;3.40;99.90
4697;DHT22;2362;50.780;0.292;2022-12-18T08:29:34;3.40;99.90
4697;DHT22;2362;50.780;0.292;2022-12-18T08:32:00;3.40;99.90
4697;DHT22;2362;50.780;0.292;2022-12-18T08:34:25;3.40;99.90
4697;DHT22;2362;50.780;0.292;2022-12-18T08:36:53;3.30;99.90
4697;DHT22;2362;50.780;0.292;2022-12-18T08:39:19;3.40;99.90
4697;DHT22;2362;50.780;0.292;2022-12-18T08:41:49;3.40;99.90
4697;DHT22;2362;50.780;0.292;2022-12-18T08:44:33;3.40;99.90
4697;DHT22;2362;50.780;0.292;2022-12-18T08:47:06;3.40;99.90
4697;DHT22;2362;50.780;0.292;2022-12-18T08:49:33;3.40;99.90
4697;DHT22;2362;50.780;0.292;2022-12-18T08:51:59;3.40;99.90
4697;DHT22;2362;50.780;0.292;2022-12-18T08:54:25;3.50;99.90
4697;DHT22;2362;50.780;0.292;2022-12-18T08:56:52;3.50;99.90
4697;DHT22;2362;50.780;0.292;2022-12-18T08:59:18;3.50;99.90
4697;DHT22;2362;50.780;0.292;2022-12-18T09:01:45;3.50;99.90
4697;DHT22;2362;50.780;0.292;2022-12-18T09:04:11;3.50;99.90
4697;DHT22;2362;50.780;0.292;2022-12-18T09:06:37;3.50;99.90
4697;DHT22;2362;50.780;0.292;2022-12-18T09:09:28;3.50;99.90
4697;DHT22;2362;50.780;0.292;2022-12-18T09:11:54;3.50;99.90
4697;DHT22;2362;50.780;0.292;2022-12-18T09:14:19;3.50;99.90
4697;DHT22;2362;50.780;0.292;2022-12-18T09:16:45;3.50;99.90
4697;DHT22;2362;50.780;0.292;2022-12-18T09:19:11;3.50;99.90
4697;DHT22;2362;50.780;0.292;2022-12-18T09:21:38;3.60;99.90
4697;DHT22;2362;50.780;0.292;2022-12-18T09:24:05;3.60;99.90
4697;DHT22;2362;50.780;0.292;2022-12-18T09:26:31;3.60;99.90
4697;DHT22;2362;50.780;0.292;2022-12-18T09:28:56;3.60;99.90
4697;DHT22;2362;50.780;0.292;2022-12-18T09:31:23;3.70;99.90
4697;DHT22;2362;50.780;0.292;2022-12-18T09:33:50;3.70;99.90
4697;DHT22;2362;50.780;0.292;2022-12-18T09:36:17;3.70;99.90
4697;DHT22;2362;50.780;0.292;2022-12-18T09:38:43;3.70;99.90
4697;DHT22;2362;50.780;0.292;2022-12-18T09:41:33;3.80;99.90
4697;DHT22;2362;50.780;0.292;2022-12-18T09:44:51;3.80;99.90
4697;DHT22;2362;50.780;0.292;2022-12-18T09:47:13;3.80;99.90
4697;DHT22;2362;50.780;0.292;2022-12-18T09:49:45;3.80;99.90
4697;DHT22;2362;50.780;0.292;2022-12-18T09:55:03;3.90;99.90
4697;DHT22;2362;50.780;0.292;2022-12-18T09:57:33;3.90;99.90
4697;DHT22;2362;50.780;0.292;2022-12-18T10:00:19;4.00;99.90
4697;DHT22;2362;50.780;0.292;2022-12-18T10:02:46;4.00;99.90
4697;DHT22;2362;50.780;0.292;2022-12-18T10:13:02;4.10;99.90
4697;DHT22;2362;50.780;0.292;2022-12-18T10:15:52;4.10;99.90
4697;DHT22;2362;50.780;0.292;2022-12-18T10:21:21;4.10;99.90
4697;DHT22;2362;50.780;0.292;2022-12-18T10:26:38;4.10;99.90
4697;DHT22;2362;50.780;0.292;2022-12-18T10:29:12;4.10;99.90
4697;DHT22;2362;50.780;0.292;2022-12-18T10:31:38;4.10;99.90
4697;DHT22;2362;50.780;0.292;2022-12-18T10:34:08;4.10;99.90
4697;DHT22;2362;50.780;0.292;2022-12-18T10:37:01;4.10;99.90
4697;DHT22;2362;50.780;0.292;2022-12-18T10:39:31;4.10;99.90
4697;DHT22;2362;50.780;0.292;2022-12-18T10:42:10;4.10;99.90
4697;DHT22;2362;50.780;0.292;2022-12-18T10:44:38;4.10;99.90
4697;DHT22;2362;50.780;0.292;2022-12-18T10:47:10;4.10;99.90
4697;DHT22;2362;50.780;0.292;2022-12-18T10:49:40;4.10;99.90
4697;DHT22;2362;50.780;0.292;2022-12-18T10:52:15;4.10;99.90
4697;DHT22;2362;50.780;0.292;2022-12-18T10:54:52;4.20;99.90
4697;DHT22;2362;50.780;0.292;2022-12-18T10:57:31;4.10;99.90
4697;DHT22;2362;50.780;0.292;2022-12-18T10:59:59;4.10;99.90
4697;DHT22;2362;50.780;0.292;2022-12-18T11:02:33;4.10;99.90
4697;DHT22;2362;50.780;0.292;2022-12-18T11:04:59;4.20;99.90
4697;DHT22;2362;50.780;0.292;2022-12-18T11:07:25;4.10;99.90
4697;DHT22;2362;50.780;0.292;2022-12-18T11:10:00;4.20;99.90
4697;DHT22;2362;50.780;0.292;2022-12-18T11:12:28;4.20;99.90
4697;DHT22;2362;50.780;0.292;2022-12-18T11:14:55;4.20;99.90
4697;DHT22;2362;50.780;0.292;2022-12-18T11:17:33;4.20;99.90
4697;DHT22;2362;50.780;0.292;2022-12-18T11:20:21;4.20;99.90
4697;DHT22;2362;50.780;0.292;2022-12-18T11:23:10;4.20;99.90
4697;DHT22;2362;50.780;0.292;2022-12-18T11:25:37;4.20;99.90
4697;DHT22;2362;50.780;0.292;2022-12-18T11:30:36;4.10;99.90
4697;DHT22;2362;50.780;0.292;2022-12-18T11:33:20;4.20;99.90
4697;DHT22;2362;50.780;0.292;2022-12-18T11:38:42;4.10;99.90
4697;DHT22;2362;50.780;0.292;2022-12-18T11:43:54;4.10;99.90
4697;DHT22;2362;50.780;0.292;2022-12-18T11:46:37;4.10;99.90
4697;DHT22;2362;50.780;0.292;2022-12-18T11:49:10;4.20;99.90
4697;DHT22;2362;50.780;0.292;2022-12-18T11:51:46;4.10;99.90
4697;DHT22;2362;50.780;0.292;2022-12-18T11:54:15;4.10;99.90
4697;DHT22;2362;50.780;0.292;2022-12-18T11:56:48;4.00;99.90
4697;DHT22;2362;50.780;0.292;2022-12-18T12:05:36;4.10;99.90
4697;DHT22;2362;50.780;0.292;2022-12-18T12:10:50;4.10;99.90
4697;DHT22;2362;50.780;0.292;2022-12-18T12:13:48;4.00;99.90
4697;DHT22;2362;50.780;0.292;2022-12-18T12:16:25;4.10;99.90
4697;DHT22;2362;50.780;0.292;2022-12-18T12:19:28;4.10;99.90
4697;DHT22;2362;50.780;0.292;2022-12-18T12:33:19;4.20;99.90
4697;DHT22;2362;50.780;0.292;2022-12-18T12:36:01;4.20;99.90
4697;DHT22;2362;50.780;0.292;2022-12-18T12:38:43;4.20;99.90
4697;DHT22;2362;50.780;0.292;2022-12-18T12:41:13;4.20;99.90
4697;DHT22;2362;50.780;0.292;2022-12-18T12:44:03;4.30;99.90
4697;DHT22;2362;50.780;0.292;2022-12-18T12:46:34;4.30;99.90
4697;DHT22;2362;50.780;0.292;2022-12-18T12:49:03;4.30;99.90
4697;DHT22;2362;50.780;0.292;2022-12-18T12:51:35;4.30;99.90
4697;DHT22;2362;50.780;0.292;2022-12-18T12:54:05;4.30;99.90
4697;DHT22;2362;50.780;0.292;2022-12-18T12:56:42;4.40;99.90
4697;DHT22;2362;50.780;0.292;2022-12-18T12:59:25;4.40;99.90
4697;DHT22;2362;50.780;0.292;2022-12-18T13:05:01;4.50;99.90
4697;DHT22;2362;50.780;0.292;2022-12-18T13:07:34;4.50;99.90
4697;DHT22;2362;50.780;0.292;2022-12-18T13:10:32;4.50;99.90
4697;DHT22;2362;50.780;0.292;2022-12-18T13:15:42;4.60;99.90
4697;DHT22;2362;50.780;0.292;2022-12-18T13:20:36;4.60;99.90
4697;DHT22;2362;50.780;0.292;2022-12-18T13:26:28;4.70;99.90
4697;DHT22;2362;50.780;0.292;2022-12-18T13:33:44;4.80;99.90
4697;DHT22;2362;50.780;0.292;2022-12-18T13:36:27;4.80;99.90
4697;DHT22;2362;50.780;0.292;2022-12-18T13:41:40;5.00;99.90
4697;DHT22;2362;50.780;0.292;2022-12-18T13:44:38;5.10;99.90
4697;DHT22;2362;50.780;0.292;2022-12-18T13:47:25;5.10;99.90
4697;DHT22;2362;50.780;0.292;2022-12-18T13:49:53;5.10;99.90
4697;DHT22;2362;50.780;0.292;2022-12-18T13:52:28;5.10;99.90
4697;DHT22;2362;50.780;0.292;2022-12-18T13:54:58;5.10;99.90
4697;DHT22;2362;50.780;0.292;2022-12-18T13:59:55;5.10;99.90
4697;DHT22;2362;50.780;0.292;2022-12-18T14:02:27;5.10;99.90
4697;DHT22;2362;50.780;0.292;2022-12-18T14:04:53;5.10;99.90
4697;DHT22;2362;50.780;0.292;2022-12-18T14:07:24;5.20;99.90
4697;DHT22;2362;50.780;0.292;2022-12-18T14:09:53;5.20;99.90
4697;DHT22;2362;50.780;0.292;2022-12-18T14:12:27;5.20;99.90
4697;DHT22;2362;50.780;0.292;2022-12-18T14:15:34;5.30;99.90
4697;DHT22;2362;50.780;0.292;2022-12-18T14:18:20;5.30;99.90
4697;DHT22;2362;50.780;0.292;2022-12-18T14:20:48;5.40;99.90
4697;DHT22;2362;50.780;0.292;2022-12-18T14:23:33;5.40;99.90
4697;DHT22;2362;50.780;0.292;2022-12-18T14:26:01;5.40;99.90
4697;DHT22;2362;50.780;0.292;2022-12-18T14:28:27;5.50;99.90
4697;DHT22;2362;50.780;0.292;2022-12-18T14:30:53;5.50;99.90
4697;DHT22;2362;50.780;0.292;2022-12-18T14:33:23;5.60;99.90
4697;DHT22;2362;50.780;0.292;2022-12-18T14:36:03;5.60;99.90
4697;DHT22;2362;50.780;0.292;2022-12-18T14:38:37;5.60;99.90
4697;DHT22;2362;50.780;0.292;2022-12-18T14:41:04;5.60;99.90
4697;DHT22;2362;50.780;0.292;2022-12-18T14:43:33;5.70;99.90
4697;DHT22;2362;50.780;0.292;2022-12-18T14:46:00;5.70;99.90
4697;DHT22;2362;50.780;0.292;2022-12-18T14:51:00;5.80;99.90
4697;DHT22;2362;50.780;0.292;2022-12-18T14:53:39;5.80;99.90
4697;DHT22;2362;50.780;0.292;2022-12-18T14:58:45;5.90;99.90
4697;DHT22;2362;50.780;0.292;2022-12-18T15:01:22;5.90;99.90
4697;DHT22;2362;50.780;0.292;2022-12-18T15:03:48;5.90;99.90
4697;DHT22;2362;50.780;0.292;2022-12-18T15:06:28;6.00;99.90
4697;DHT22;2362;50.780;0.292;2022-12-18T15:08:54;6.00;99.90
4697;DHT22;2362;50.780;0.292;2022-12-18T15:11:48;6.10;99.90
4697;DHT22;2362;50.780;0.292;2022-12-18T15:17:00;6.10;99.90
4697;DHT22;2362;50.780;0.292;2022-12-18T15:19:39;6.10;99.90
4697;DHT22;2362;50.780;0.292;2022-12-18T15:22:21;6.10;99.90
4697;DHT22;2362;50.780;0.292;2022-12-18T15:24:48;6.10;99.90
4697;DHT22;2362;50.780;0.292;2022-12-18T15:27:26;6.10;99.90
4697;DHT22;2362;50.780;0.292;2022-12-18T15:32:35;6.10;99.90
4697;DHT22;2362;50.780;0.292;2022-12-18T15:37:39;6.20;99.90
4697;DHT22;2362;50.780;0.292;2022-12-18T15:40:08;6.20;99.90
4697;DHT22;2362;50.780;0.292;2022-12-18T15:42:36;6.10;99.90
4697;DHT22;2362;50.780;0.292;2022-12-18T15:45:21;6.20;99.90
4697;DHT22;2362;50.780;0.292;2022-12-18T15:47:46;6.30;99.90
4697;DHT22;2362;50.780;0.292;2022-12-18T15:50:12;6.20;99.90
4697;DHT22;2362;50.780;0.292;2022-12-18T15:52:46;6.30;99.90
4697;DHT22;2362;50.780;0.292;2022-12-18T15:55:20;6.20;99.90
4697;DHT22;2362;50.780;0.292;2022-12-18T15:58:06;6.20;99.90
4697;DHT22;2362;50.780;0.292;2022-12-18T16:00:37;6.30;99.90
4697;DHT22;2362;50.780;0.292;2022-12-18T16:03:04;6.40;99.90
4697;DHT22;2362;50.780;0.292;2022-12-18T16:05:31;6.30;99.90
4697;DHT22;2362;50.780;0.292;2022-12-18T16:07:57;6.40;99.90
4697;DHT22;2362;50.780;0.292;2022-12-18T16:10:24;6.40;99.90
4697;DHT22;2362;50.780;0.292;2022-12-18T16:12:50;6.40;99.90
4697;DHT22;2362;50.780;0.292;2022-12-18T16:15:16;6.40;99.90
4697;DHT22;2362;50.780;0.292;2022-12-18T16:17:43;6.40;99.90
4697;DHT22;2362;50.780;0.292;2022-12-18T16:20:14;6.50;99.90
4697;DHT22;2362;50.780;0.292;2022-12-18T16:22:41;6.50;99.90
4697;DHT22;2362;50.780;0.292;2022-12-18T16:25:14;6.50;99.90
4697;DHT22;2362;50.780;0.292;2022-12-18T16:27:41;6.50;99.90
4697;DHT22;2362;50.780;0.292;2022-12-18T16:30:13;6.50;99.90
4697;DHT22;2362;50.780;0.292;2022-12-18T16:32:38;6.50;99.90
4697;DHT22;2362;50.780;0.292;2022-12-18T16:35:05;6.40;99.90
4697;DHT22;2362;50.780;0.292;2022-12-18T16:37:30;6.50;99.90
4697;DHT22;2362;50.780;0.292;2022-12-18T16:39:56;6.40;99.90
4697;DHT22;2362;50.780;0.292;2022-12-18T16:42:22;6.40;99.90
4697;DHT22;2362;50.780;0.292;2022-12-18T16:44:48;6.50;99.90
4697;DHT22;2362;50.780;0.292;2022-12-18T16:47:15;6.40;99.90
4697;DHT22;2362;50.780;0.292;2022-12-18T16:49:42;6.50;99.90
4697;DHT22;2362;50.780;0.292;2022-12-18T16:52:09;6.50;99.90
4697;DHT22;2362;50.780;0.292;2022-12-18T16:54:35;6.40;99.90
4697;DHT22;2362;50.780;0.292;2022-12-18T16:57:26;6.40;99.90
4697;DHT22;2362;50.780;0.292;2022-12-18T16:59:54;6.40;99.90
4697;DHT22;2362;50.780;0.292;2022-12-18T17:02:25;6.40;99.90
4697;DHT22;2362;50.780;0.292;2022-12-18T17:04:55;6.40;99.90
4697;DHT22;2362;50.780;0.292;2022-12-18T17:07:22;6.50;99.90
4697;DHT22;2362;50.780;0.292;2022-12-18T17:09:48;6.50;99.90
4697;DHT22;2362;50.780;0.292;2022-12-18T17:12:15;6.50;99.90
4697;DHT22;2362;50.780;0.292;2022-12-18T17:14:40;6.50;99.90
4697;DHT22;2362;50.780;0.292;2022-12-18T17:17:06;6.40;99.90
4697;DHT22;2362;50.780;0.292;2022-12-18T17:19:32;6.40;99.90
4697;DHT22;2362;50.780;0.292;2022-12-18T17:21:57;6.40;99.90
4697;DHT22;2362;50.780;0.292;2022-12-18T17:24:23;6.40;99.90
4697;DHT22;2362;50.780;0.292;2022-12-18T17:26:49;6.50;99.90
4697;DHT22;2362;50.780;0.292;2022-12-18T17:29:19;6.50;99.90
4697;DHT22;2362;50.780;0.292;2022-12-18T17:31:46;6.60;99.90
4697;DHT22;2362;50.780;0.292;2022-12-18T17:34:12;6.60;99.90
4697;DHT22;2362;50.780;0.292;2022-12-18T17:36:38;6.60;99.90
4697;DHT22;2362;50.780;0.292;2022-12-18T17:39:05;6.60;99.90
4697;DHT22;2362;50.780;0.292;2022-12-18T17:41:31;6.60;99.90
4697;DHT22;2362;50.780;0.292;2022-12-18T17:43:59;6.70;99.90
4697;DHT22;2362;50.780;0.292;2022-12-18T17:46:26;6.60;99.90
4697;DHT22;2362;50.780;0.292;2022-12-18T17:48:55;6.60;99.90
4697;DHT22;2362;50.780;0.292;2022-12-18T17:51:21;6.60;99.90
4697;DHT22;2362;50.780;0.292;2022-12-18T17:53:46;6.70;99.90
4697;DHT22;2362;50.780;0.292;2022-12-18T17:56:14;6.70;99.90
4697;DHT22;2362;50.780;0.292;2022-12-18T17:58:40;6.80;99.90
4697;DHT22;2362;50.780;0.292;2022-12-18T18:01:07;6.80;99.90
4697;DHT22;2362;50.780;0.292;2022-12-18T18:03:33;6.80;99.90
4697;DHT22;2362;50.780;0.292;2022-12-18T18:06:03;6.90;99.90
4697;DHT22;2362;50.780;0.292;2022-12-18T18:08:28;6.90;99.90
4697;DHT22;2362;50.780;0.292;2022-12-18T18:10:56;6.90;99.90
4697;DHT22;2362;50.780;0.292;2022-12-18T18:13:42;6.90;99.90
4697;DHT22;2362;50.780;0.292;2022-12-18T18:16:28;6.90;99.90
4697;DHT22;2362;50.780;0.292;2022-12-18T18:18:56;6.90;99.90
4697;DHT22;2362;50.780;0.292;2022-12-18T18:21:22;6.90;99.90
4697;DHT22;2362;50.780;0.292;2022-12-18T18:23:48;6.90;99.90